createdAt,value
2023-05-02T00:02:06.438Z,15.31
2023-05-02T00:04:33.704Z,15.13
2023-05-02T00:07:01.263Z,15.10
2023-05-02T00:09:29.377Z,15.24
2023-05-02T00:11:56.288Z,15.33
2023-05-02T00:14:23.227Z,15.28
2023-05-02T00:16:50.215Z,15.19
2023-05-02T00:19:17.331Z,15.19
2023-05-02T00:21:47.346Z,14.93
2023-05-02T00:24:14.253Z,14.94
2023-05-02T00:26:41.276Z,14.94
2023-05-02T00:29:08.741Z,14.86
2023-05-02T00:31:36.526Z,14.94
2023-05-02T00:34:03.589Z,14.86
2023-05-02T00:36:30.526Z,14.88
2023-05-02T00:38:57.528Z,14.88
2023-05-02T00:41:24.646Z,14.59
2023-05-02T00:43:51.628Z,14.62
2023-05-02T00:46:18.675Z,14.82
2023-05-02T00:48:46.037Z,15.12
2023-05-02T00:51:13.654Z,15.03
2023-05-02T00:53:42.019Z,15.14
2023-05-02T00:56:10.237Z,15.18
2023-05-02T00:58:41.083Z,15.09
2023-05-02T01:01:26.582Z,15.06
2023-05-02T01:04:33.206Z,15.19
2023-05-02T01:07:06.848Z,14.96
2023-05-02T01:09:58.911Z,14.98
2023-05-02T01:12:42.621Z,15.02
2023-05-02T01:15:15.198Z,14.44
2023-05-02T01:17:44.557Z,14.79
2023-05-02T01:20:20.344Z,14.77
2023-05-02T01:22:49.314Z,14.82
2023-05-02T01:25:38.100Z,14.76
2023-05-02T01:28:22.746Z,14.79
2023-05-02T01:30:51.958Z,14.16
2023-05-02T01:33:20.850Z,14.13
2023-05-02T01:35:52.004Z,14.28
2023-05-02T01:38:22.373Z,14.39
2023-05-02T01:40:51.788Z,14.56
2023-05-02T01:43:20.858Z,14.25
2023-05-02T01:45:51.144Z,14.31
2023-05-02T01:48:19.751Z,14.37
2023-05-02T01:50:48.191Z,14.45
2023-05-02T01:53:15.816Z,14.42
2023-05-02T01:55:46.207Z,14.34
2023-05-02T01:58:15.536Z,14.49
2023-05-02T02:00:45.609Z,14.54
2023-05-02T02:03:14.399Z,14.38
2023-05-02T02:05:42.750Z,14.23
2023-05-02T02:08:09.935Z,13.98
2023-05-02T02:10:45.345Z,14.19
2023-05-02T02:13:26.067Z,14.16
2023-05-02T02:15:59.664Z,14.13
2023-05-02T02:18:29.203Z,14.18
2023-05-02T02:20:58.679Z,14.12
2023-05-02T02:23:28.731Z,14.11
2023-05-02T02:25:57.278Z,14.12
2023-05-02T02:28:24.367Z,14.06
2023-05-02T02:30:51.580Z,14.13
2023-05-02T02:33:19.817Z,14.16
2023-05-02T02:35:58.929Z,14.10
2023-05-02T02:39:03.991Z,14.12
2023-05-02T02:41:42.687Z,14.18
2023-05-02T02:44:26.837Z,14.17
2023-05-02T02:47:06.989Z,14.34
2023-05-02T02:49:47.920Z,14.18
2023-05-02T02:52:28.489Z,13.96
2023-05-02T02:55:35.879Z,14.01
2023-05-02T02:58:13.553Z,14.02
2023-05-02T03:00:41.303Z,14.11
2023-05-02T03:03:08.947Z,14.13
2023-05-02T03:05:36.271Z,14.02
2023-05-02T03:08:03.492Z,14.07
2023-05-02T03:10:30.457Z,13.94
2023-05-02T03:12:57.402Z,13.25
2023-05-02T03:15:51.897Z,13.73
2023-05-02T03:18:19.464Z,13.49
2023-05-02T03:20:46.645Z,13.76
2023-05-02T03:23:13.680Z,13.61
2023-05-02T03:25:40.575Z,13.39
2023-05-02T03:28:07.506Z,13.47
2023-05-02T03:30:35.475Z,13.21
2023-05-02T03:33:05.110Z,13.26
2023-05-02T03:35:32.112Z,13.39
2023-05-02T03:37:59.090Z,13.39
2023-05-02T03:40:28.073Z,13.46
2023-05-02T03:42:55.244Z,13.32
2023-05-02T03:45:22.174Z,12.96
2023-05-02T03:47:49.093Z,12.99
2023-05-02T03:50:16.163Z,13.07
2023-05-02T03:52:43.136Z,12.83
2023-05-02T03:55:10.860Z,12.73
2023-05-02T03:57:37.808Z,13.14
2023-05-02T04:00:06.028Z,13.12
2023-05-02T04:02:33.082Z,12.60
2023-05-02T04:05:00.046Z,12.72
2023-05-02T04:07:27.276Z,12.89
2023-05-02T04:09:54.190Z,12.77
2023-05-02T04:12:21.416Z,12.92
2023-05-02T04:14:48.416Z,13.13
2023-05-02T04:17:18.692Z,13.09
2023-05-02T04:19:45.678Z,13.07
2023-05-02T04:22:12.942Z,13.26
2023-05-02T04:24:39.856Z,13.40
2023-05-02T04:27:06.745Z,13.89
2023-05-02T04:29:33.869Z,14.53
2023-05-02T04:32:00.787Z,15.09
2023-05-02T04:34:28.652Z,16.06
2023-05-02T04:36:55.621Z,16.81
2023-05-02T04:39:22.557Z,17.45
2023-05-02T04:41:49.434Z,18.30
2023-05-02T04:44:16.428Z,18.81
2023-05-02T04:46:43.981Z,19.52
2023-05-02T04:49:11.855Z,19.84
2023-05-02T04:51:38.860Z,20.75
2023-05-02T04:54:05.851Z,21.64
2023-05-02T04:56:32.757Z,21.65
2023-05-02T04:58:59.702Z,22.19
2023-05-02T05:01:29.309Z,21.87
2023-05-02T05:03:56.258Z,22.29
2023-05-02T05:06:23.537Z,22.53
2023-05-02T05:08:50.577Z,22.00
2023-05-02T05:11:17.798Z,22.05
2023-05-02T05:13:44.755Z,21.80
2023-05-02T05:16:12.281Z,21.68
2023-05-02T05:18:42.133Z,20.93
2023-05-02T05:21:10.215Z,20.40
2023-05-02T05:23:38.444Z,20.72
2023-05-02T05:26:12.294Z,19.70
2023-05-02T05:28:39.724Z,20.22
2023-05-02T05:31:11.257Z,19.66
2023-05-02T05:33:39.719Z,20.29
2023-05-02T05:36:15.767Z,19.82
2023-05-02T05:38:42.767Z,19.71
2023-05-02T05:41:14.248Z,19.66
2023-05-02T05:43:50.077Z,18.96
2023-05-02T05:46:17.571Z,19.17
2023-05-02T05:48:44.661Z,19.84
2023-05-02T05:51:11.929Z,20.61
2023-05-02T05:53:40.681Z,20.68
2023-05-02T05:56:13.067Z,21.16
2023-05-02T05:58:40.583Z,20.70
2023-05-02T06:01:08.684Z,21.14
2023-05-02T06:03:35.737Z,20.08
2023-05-02T06:06:02.854Z,20.65
2023-05-02T06:08:30.491Z,20.05
2023-05-02T06:11:01.629Z,21.20
2023-05-02T06:13:28.634Z,20.56
2023-05-02T06:15:55.586Z,20.41
2023-05-02T06:18:22.669Z,20.09
2023-05-02T06:20:49.619Z,20.42
2023-05-02T06:23:16.642Z,20.91
2023-05-02T06:25:43.585Z,20.64
2023-05-02T06:28:10.661Z,21.08
2023-05-02T06:30:37.626Z,21.06
2023-05-02T06:33:05.668Z,21.97
2023-05-02T06:35:32.706Z,22.35
2023-05-02T06:38:00.255Z,21.90
2023-05-02T06:40:27.500Z,22.35
2023-05-02T06:42:54.609Z,22.65
2023-05-02T06:45:21.725Z,23.00
2023-05-02T06:47:48.719Z,23.41
2023-05-02T06:50:16.287Z,23.79
2023-05-02T06:52:43.288Z,23.31
2023-05-02T06:55:10.339Z,22.80
2023-05-02T06:57:37.347Z,23.51
2023-05-02T07:00:05.135Z,23.26
2023-05-02T07:02:32.397Z,23.77
2023-05-02T07:04:59.430Z,23.95
2023-05-02T07:07:26.421Z,23.81
2023-05-02T07:09:53.483Z,22.06
2023-05-02T07:12:21.094Z,22.89
2023-05-02T07:14:48.132Z,22.28
2023-05-02T07:17:16.068Z,22.76
2023-05-02T07:19:45.237Z,23.55
2023-05-02T07:22:12.734Z,23.79
2023-05-02T07:24:43.225Z,23.89
2023-05-02T07:27:12.542Z,24.39
2023-05-02T07:29:40.299Z,24.75
2023-05-02T07:32:07.434Z,25.15
2023-05-02T07:34:35.173Z,25.78
2023-05-02T07:37:02.332Z,24.91
2023-05-02T07:39:30.133Z,24.17
2023-05-02T07:41:57.223Z,24.96
2023-05-02T07:44:24.558Z,24.64
2023-05-02T07:46:53.274Z,25.32
2023-05-02T07:49:20.988Z,25.71
2023-05-02T07:51:48.364Z,25.30
2023-05-02T07:54:18.164Z,25.39
2023-05-02T07:56:45.321Z,25.64
2023-05-02T07:59:12.501Z,26.14
2023-05-02T08:01:40.809Z,23.78
2023-05-02T08:04:09.886Z,25.27
2023-05-02T08:06:37.583Z,25.43
2023-05-02T08:09:04.766Z,24.42
2023-05-02T08:11:31.747Z,23.16
2023-05-02T08:13:58.751Z,24.28
2023-05-02T08:16:25.925Z,24.00
2023-05-02T08:18:52.942Z,23.90
2023-05-02T08:21:20.011Z,23.31
2023-05-02T08:23:47.801Z,23.65
2023-05-02T08:26:19.165Z,24.54
2023-05-02T08:29:06.779Z,23.18
2023-05-02T08:31:36.926Z,23.52
2023-05-02T08:34:04.191Z,23.27
2023-05-02T08:36:32.603Z,22.88
2023-05-02T08:39:00.179Z,22.80
2023-05-02T08:41:29.507Z,23.40
2023-05-02T08:43:57.296Z,23.19
2023-05-02T08:46:26.386Z,23.05
2023-05-02T08:48:54.435Z,24.11
2023-05-02T08:51:24.722Z,24.12
2023-05-02T08:53:53.269Z,24.03
2023-05-02T08:56:20.880Z,23.68
2023-05-02T08:58:47.966Z,24.32
2023-05-02T09:01:19.832Z,24.79
2023-05-02T09:03:48.634Z,24.90
2023-05-02T09:06:21.394Z,25.43
2023-05-02T09:08:50.217Z,25.45
2023-05-02T09:11:17.726Z,25.86
2023-05-02T09:13:52.472Z,24.95
2023-05-02T09:16:24.150Z,25.90
2023-05-02T09:18:59.004Z,25.83
2023-05-02T09:21:35.133Z,26.18
2023-05-02T09:24:04.155Z,26.81
2023-05-02T09:26:32.974Z,25.31
2023-05-02T09:29:07.155Z,24.94
2023-05-02T09:34:14.917Z,26.91
2023-05-02T09:36:44.349Z,27.27
2023-05-02T09:39:12.179Z,26.62
2023-05-02T09:41:43.866Z,27.42
2023-05-02T09:44:12.959Z,26.99
2023-05-02T09:46:42.347Z,25.69
2023-05-02T09:49:12.983Z,26.35
2023-05-02T09:51:40.077Z,26.31
2023-05-02T09:54:07.450Z,26.69
2023-05-02T09:56:57.015Z,26.44
2023-05-02T09:59:24.966Z,26.59
2023-05-02T10:02:03.316Z,25.47
2023-05-02T10:04:32.955Z,24.30
2023-05-02T10:07:02.039Z,25.00
2023-05-02T10:09:32.924Z,24.42
2023-05-02T10:12:08.675Z,25.13
2023-05-02T10:14:51.074Z,25.30
2023-05-02T10:17:28.651Z,25.14
2023-05-02T10:20:06.832Z,26.07
2023-05-02T10:22:35.610Z,25.98
2023-05-02T10:25:04.175Z,26.25
2023-05-02T10:27:32.429Z,26.27
2023-05-02T10:30:00.819Z,26.54
2023-05-02T10:32:29.734Z,26.10
2023-05-02T10:35:07.378Z,26.57
2023-05-02T10:37:38.764Z,26.19
2023-05-02T10:40:06.756Z,26.22
2023-05-02T10:42:40.543Z,26.78
2023-05-02T10:45:30.644Z,26.87
2023-05-02T10:48:19.917Z,25.90
2023-05-02T10:50:56.400Z,26.09
2023-05-02T10:53:37.087Z,26.17
2023-05-02T10:56:21.990Z,25.27
2023-05-02T10:58:51.916Z,25.39
2023-05-02T11:01:31.313Z,25.77
2023-05-02T11:03:58.714Z,25.19
2023-05-02T11:06:29.146Z,26.00
2023-05-02T11:09:16.700Z,25.35
2023-05-02T11:11:45.176Z,26.13
2023-05-02T11:14:32.756Z,26.62
2023-05-02T11:17:05.655Z,26.39
2023-05-02T11:19:39.158Z,26.91
2023-05-02T11:22:19.319Z,27.35
2023-05-02T11:24:48.396Z,25.66
2023-05-02T11:27:30.776Z,26.74
2023-05-02T11:29:58.958Z,27.10
2023-05-02T11:32:50.180Z,27.45
2023-05-02T11:35:21.330Z,25.01
2023-05-02T11:37:59.873Z,25.75
2023-05-02T11:40:28.630Z,25.36
2023-05-02T11:42:57.859Z,25.44
2023-05-02T11:45:38.177Z,26.41
2023-05-02T11:48:09.602Z,26.45
2023-05-02T11:50:50.174Z,26.26
2023-05-02T11:53:23.740Z,26.08
2023-05-02T11:55:55.888Z,25.51
2023-05-02T11:58:24.839Z,26.77
2023-05-02T12:00:53.370Z,26.80
2023-05-02T12:03:22.698Z,27.26
2023-05-02T12:05:50.578Z,27.38
2023-05-02T12:08:28.416Z,26.52
2023-05-02T12:10:56.827Z,26.08
2023-05-02T12:13:25.864Z,25.56
2023-05-02T12:15:54.749Z,25.94
2023-05-02T12:18:27.243Z,26.00
2023-05-02T12:20:55.823Z,25.47
2023-05-02T12:23:24.957Z,25.96
2023-05-02T12:25:52.138Z,25.56
2023-05-02T12:28:20.518Z,25.47
2023-05-02T12:30:49.182Z,25.38
2023-05-02T12:33:17.493Z,24.34
2023-05-02T12:35:49.251Z,25.47
2023-05-02T12:38:18.540Z,25.28
2023-05-02T12:40:53.986Z,25.22
2023-05-02T12:43:22.336Z,25.01
2023-05-02T12:45:50.380Z,25.20
2023-05-02T12:48:27.860Z,24.63
2023-05-02T12:50:55.897Z,24.85
2023-05-02T12:53:45.317Z,25.47
2023-05-02T12:56:13.680Z,25.14
2023-05-02T12:58:48.365Z,25.82
2023-05-02T13:01:16.365Z,26.14
2023-05-02T13:03:44.400Z,26.25
2023-05-02T13:06:12.091Z,25.87
2023-05-02T13:08:39.621Z,25.97
2023-05-02T13:11:06.757Z,25.07
2023-05-02T13:13:35.733Z,24.28
2023-05-02T13:16:03.006Z,23.90
2023-05-02T13:18:30.251Z,23.80
2023-05-02T13:20:57.412Z,23.76
2023-05-02T13:23:24.692Z,23.81
2023-05-02T13:25:52.024Z,24.44
2023-05-02T13:28:19.201Z,24.31
2023-05-02T13:30:46.359Z,24.09
2023-05-02T13:33:19.574Z,23.75
2023-05-02T13:35:47.933Z,23.52
2023-05-02T13:38:14.998Z,23.79
2023-05-02T13:40:42.163Z,23.18
2023-05-02T13:43:13.419Z,23.11
2023-05-02T13:45:40.415Z,23.84
2023-05-02T13:48:07.510Z,23.75
2023-05-02T13:50:37.657Z,23.64
2023-05-02T13:53:20.215Z,23.43
2023-05-02T13:55:49.038Z,23.17
2023-05-02T13:58:16.119Z,23.11
2023-05-02T14:00:43.177Z,22.94
2023-05-02T14:03:43.371Z,21.88
2023-05-02T14:06:10.749Z,22.28
2023-05-02T14:08:38.717Z,22.63
2023-05-02T14:11:07.296Z,22.89
2023-05-02T14:13:34.590Z,22.70
2023-05-02T14:16:01.681Z,22.55
2023-05-02T14:18:28.720Z,22.50
2023-05-02T14:21:00.160Z,22.17
2023-05-02T14:23:28.636Z,21.18
2023-05-02T14:25:56.063Z,21.42
2023-05-02T14:28:23.406Z,21.27
2023-05-02T14:30:51.331Z,21.12
2023-05-02T14:33:18.362Z,21.69
2023-05-02T14:35:46.067Z,21.28
2023-05-02T14:38:13.031Z,20.75
2023-05-02T14:40:40.004Z,21.16
2023-05-02T14:43:07.632Z,21.04
2023-05-02T14:45:35.143Z,20.59
2023-05-02T14:48:02.182Z,20.79
2023-05-02T14:50:29.524Z,20.71
2023-05-02T14:52:56.522Z,20.94
2023-05-02T14:55:23.555Z,20.39
2023-05-02T14:57:50.604Z,20.71
2023-05-02T15:00:17.973Z,21.00
2023-05-02T15:02:45.004Z,20.57
2023-05-02T15:05:12.917Z,20.16
2023-05-02T15:07:40.167Z,20.54
2023-05-02T15:10:07.666Z,20.37
2023-05-02T15:12:34.650Z,20.02
2023-05-02T15:15:01.590Z,20.48
2023-05-02T15:17:28.614Z,20.31
2023-05-02T15:19:58.260Z,20.03
2023-05-02T15:22:26.349Z,20.88
2023-05-02T15:24:53.956Z,19.88
2023-05-02T15:27:21.028Z,19.54
2023-05-02T15:29:47.963Z,19.74
2023-05-02T15:32:15.001Z,18.81
2023-05-02T15:34:41.961Z,18.88
2023-05-02T15:37:08.924Z,19.17
2023-05-02T15:39:35.805Z,18.97
2023-05-02T15:42:06.498Z,19.03
2023-05-02T15:44:38.856Z,18.57
2023-05-02T15:47:06.015Z,18.60
2023-05-02T15:49:34.671Z,19.06
2023-05-02T15:52:02.985Z,19.62
2023-05-02T15:54:30.114Z,19.22
2023-05-02T15:56:57.377Z,18.66
2023-05-02T15:59:24.377Z,19.02
2023-05-02T16:01:51.545Z,19.20
2023-05-02T16:04:18.601Z,19.14
2023-05-02T16:06:45.914Z,18.95
2023-05-02T16:09:13.198Z,18.82
2023-05-02T16:11:40.176Z,18.11
2023-05-02T16:14:07.077Z,18.92
2023-05-02T16:16:34.609Z,18.19
2023-05-02T16:19:01.600Z,18.79
2023-05-02T16:21:28.653Z,18.71
2023-05-02T16:23:55.728Z,18.05
2023-05-02T16:26:22.660Z,17.71
2023-05-02T16:28:49.616Z,18.20
2023-05-02T16:31:16.676Z,17.84
2023-05-02T16:33:43.594Z,17.97
2023-05-02T16:36:10.557Z,17.44
2023-05-02T16:38:37.566Z,17.34
2023-05-02T16:41:07.275Z,17.95
2023-05-02T16:43:34.336Z,17.92
2023-05-02T16:46:02.827Z,17.60
2023-05-02T16:48:29.975Z,17.84
2023-05-02T16:50:57.279Z,17.87
2023-05-02T16:53:24.802Z,17.81
2023-05-02T16:55:51.910Z,17.46
2023-05-02T16:58:19.418Z,17.35
2023-05-02T17:00:46.564Z,16.95
2023-05-02T17:03:13.683Z,17.33
2023-05-02T17:05:41.666Z,17.36
2023-05-02T17:08:09.254Z,17.13
2023-05-02T17:10:37.405Z,17.30
2023-05-02T17:13:04.413Z,17.03
2023-05-02T17:15:31.555Z,16.62
2023-05-02T17:17:58.499Z,16.90
2023-05-02T17:20:25.506Z,16.99
2023-05-02T17:22:54.632Z,16.98
2023-05-02T17:25:21.610Z,16.67
2023-05-02T17:27:48.533Z,16.63
2023-05-02T17:30:15.506Z,16.65
2023-05-02T17:32:42.466Z,16.46
2023-05-02T17:35:09.934Z,16.77
2023-05-02T17:37:38.479Z,16.45
2023-05-02T17:40:06.364Z,17.01
2023-05-02T17:42:33.304Z,17.09
2023-05-02T17:45:00.286Z,17.56
2023-05-02T17:47:27.192Z,16.58
2023-05-02T17:49:54.552Z,16.03
2023-05-02T17:52:21.865Z,16.12
2023-05-02T17:54:48.822Z,16.47
2023-05-02T17:57:17.277Z,16.80
2023-05-02T17:59:44.761Z,17.02
2023-05-02T18:02:11.852Z,16.69
2023-05-02T18:04:38.896Z,16.71
2023-05-02T18:07:06.267Z,16.99
2023-05-02T18:09:33.291Z,16.68
2023-05-02T18:12:00.949Z,17.11
2023-05-02T18:14:27.892Z,16.23
2023-05-02T18:16:54.879Z,16.61
2023-05-02T18:19:23.190Z,16.36
2023-05-02T18:21:50.286Z,16.19
2023-05-02T18:24:17.209Z,16.74
2023-05-02T18:26:44.145Z,16.71
2023-05-02T18:29:11.109Z,16.94
2023-05-02T18:31:40.561Z,16.55
2023-05-02T18:34:07.712Z,16.77
2023-05-02T18:36:34.747Z,16.43
2023-05-02T18:39:01.675Z,16.71
2023-05-02T18:41:28.663Z,16.29
2023-05-02T18:43:56.691Z,16.58
2023-05-02T18:46:24.428Z,16.10
2023-05-02T18:48:51.443Z,16.58
2023-05-02T18:51:18.716Z,16.43
2023-05-02T18:53:45.674Z,16.07
2023-05-02T18:56:14.723Z,16.01
2023-05-02T18:58:42.435Z,15.80
2023-05-02T19:01:16.081Z,15.96
2023-05-02T19:03:44.011Z,15.63
2023-05-02T19:06:11.319Z,15.63
2023-05-02T19:08:40.421Z,15.51
2023-05-02T19:11:07.575Z,15.43
2023-05-02T19:13:34.676Z,15.34
2023-05-02T19:16:01.765Z,15.49
2023-05-02T19:18:28.759Z,15.61
2023-05-02T19:20:55.772Z,15.65
2023-05-02T19:23:23.392Z,15.80
2023-05-02T19:25:50.418Z,15.81
2023-05-02T19:28:17.463Z,15.57
2023-05-02T19:30:44.874Z,15.95
2023-05-02T19:33:12.064Z,15.87
2023-05-02T19:35:39.650Z,16.19
2023-05-02T19:38:06.613Z,15.64
2023-05-02T19:40:33.626Z,15.72
2023-05-02T19:43:00.729Z,15.31
2023-05-02T19:45:27.998Z,15.59
2023-05-02T19:47:55.052Z,15.60
2023-05-02T19:50:22.004Z,15.76
2023-05-02T19:52:50.719Z,15.42
2023-05-02T19:55:18.748Z,15.57
2023-05-02T19:57:45.802Z,16.27
2023-05-02T20:00:14.271Z,15.87
2023-05-02T20:02:41.454Z,16.08
2023-05-02T20:05:09.012Z,15.84
2023-05-02T20:07:36.328Z,16.04
2023-05-02T20:10:03.873Z,16.20
2023-05-02T20:12:31.003Z,15.68
2023-05-02T20:14:57.920Z,15.80
2023-05-02T20:17:24.886Z,15.99
2023-05-02T20:19:51.848Z,16.01
2023-05-02T20:22:19.356Z,16.26
2023-05-02T20:24:46.508Z,16.44
2023-05-02T20:27:13.738Z,15.93
2023-05-02T20:29:40.894Z,15.83
2023-05-02T20:32:09.413Z,15.79
2023-05-02T20:34:36.523Z,15.30
2023-05-02T20:37:07.136Z,15.66
2023-05-02T20:39:34.046Z,15.85
2023-05-02T20:42:01.636Z,15.38
2023-05-02T20:44:28.715Z,16.01
2023-05-02T20:46:55.698Z,16.27
2023-05-02T20:49:22.663Z,16.17
2023-05-02T20:51:50.457Z,15.57
2023-05-02T20:54:18.403Z,15.10
2023-05-02T20:56:45.526Z,14.87
2023-05-02T20:59:12.650Z,15.56
2023-05-02T21:01:39.662Z,15.97
2023-05-02T21:04:06.760Z,15.80
2023-05-02T21:06:33.900Z,15.80
2023-05-02T21:09:02.420Z,15.70
2023-05-02T21:11:29.518Z,16.02
2023-05-02T21:13:56.444Z,15.97
2023-05-02T21:16:23.599Z,16.25
2023-05-02T21:18:50.705Z,16.05
2023-05-02T21:21:17.714Z,15.81
2023-05-02T21:23:44.737Z,16.07
2023-05-02T21:26:11.797Z,15.70
2023-05-02T21:28:38.933Z,15.99
2023-05-02T21:31:07.867Z,16.24
2023-05-02T21:33:35.005Z,16.31
2023-05-02T21:36:01.956Z,16.47
2023-05-02T21:38:29.363Z,16.39
2023-05-02T21:40:56.378Z,16.00
2023-05-02T21:43:23.439Z,16.05
2023-05-02T21:45:50.799Z,16.27
2023-05-02T21:48:17.800Z,16.22
2023-05-02T21:50:45.263Z,16.23
2023-05-02T21:53:12.938Z,16.06
2023-05-02T21:55:39.980Z,15.58
2023-05-02T21:58:08.718Z,15.52
2023-05-02T22:00:40.835Z,15.50
2023-05-02T22:03:11.805Z,15.41
2023-05-02T22:05:42.347Z,15.36
2023-05-02T22:08:11.293Z,15.49
2023-05-02T22:10:40.453Z,15.26
2023-05-02T22:13:12.523Z,15.15
2023-05-02T22:15:47.395Z,15.40
2023-05-02T22:18:18.002Z,15.49
2023-05-02T22:20:45.708Z,15.42
2023-05-02T22:23:13.091Z,15.45
2023-05-02T22:25:42.404Z,15.28
2023-05-02T22:28:13.808Z,15.32
2023-05-02T22:30:43.265Z,15.72
2023-05-02T22:33:10.256Z,15.42
2023-05-02T22:35:38.029Z,15.43
2023-05-02T22:38:06.088Z,15.51
2023-05-02T22:40:33.372Z,14.77
2023-05-02T22:43:01.146Z,15.17
2023-05-02T22:45:28.176Z,15.34
2023-05-02T22:47:55.500Z,15.58
2023-05-02T22:50:22.491Z,15.47
2023-05-02T22:52:49.508Z,15.31
2023-05-02T22:55:16.533Z,15.26
2023-05-02T22:57:43.668Z,15.75
2023-05-02T23:00:11.438Z,15.27
2023-05-02T23:02:38.781Z,15.49
2023-05-02T23:05:07.258Z,15.29
2023-05-02T23:07:34.357Z,15.29
2023-05-02T23:10:01.876Z,15.38
2023-05-02T23:12:29.125Z,15.57
2023-05-02T23:14:56.115Z,15.90
2023-05-02T23:17:23.428Z,15.95
2023-05-02T23:19:50.734Z,15.65
2023-05-02T23:22:17.811Z,15.52
2023-05-02T23:24:47.598Z,15.86
2023-05-02T23:27:14.498Z,15.83
2023-05-02T23:29:41.497Z,15.90
2023-05-02T23:32:08.767Z,15.53
2023-05-02T23:34:38.878Z,15.97
2023-05-02T23:37:07.138Z,16.10
2023-05-02T23:39:34.451Z,16.37
2023-05-02T23:42:03.917Z,16.38
2023-05-02T23:44:31.547Z,16.10
2023-05-02T23:47:01.557Z,16.18
2023-05-02T23:49:28.571Z,16.31
2023-05-02T23:51:55.612Z,16.63
2023-05-02T23:54:22.540Z,16.27
2023-05-02T23:56:49.531Z,16.48
2023-05-02T23:59:16.561Z,16.34
